LFSB METAR :   2016/12/10 22:00 LFSB 102200Z 19005KT CAVOK 00/M02 Q1025 NOSIG

TAF  2016/12/10 18:21 TAF LFSB 101700Z 1018/1118 17005KT CAVOK BECMG 1107/1110 BKN030 TEMPO 1108/1112 -RA TEMPO 1115/1118 BKN010